createdAt,value
2018-05-07T00:03:52.290Z,1.60
2018-05-07T00:34:44.640Z,1.70
2018-05-07T00:40:10.228Z,1.70
2018-05-07T00:42:49.284Z,1.90
2018-05-07T00:55:09.571Z,1.62
2018-05-07T00:58:09.083Z,1.77
2018-05-07T01:00:55.426Z,1.70
2018-05-07T01:03:50.442Z,1.90
2018-05-07T01:09:41.408Z,1.60
2018-05-07T01:12:25.984Z,1.73
2018-05-07T01:15:08.314Z,1.70
2018-05-07T01:17:52.976Z,1.80
2018-05-07T01:23:11.200Z,1.80
2018-05-07T02:08:38.394Z,1.87
2018-05-07T02:11:17.787Z,1.73
2018-05-07T02:13:55.887Z,1.90
2018-05-07T02:16:37.621Z,2.13
2018-05-07T02:19:10.959Z,1.87
2018-05-07T02:22:12.527Z,1.92
2018-05-07T06:52:09.478Z,4.93
2018-05-07T06:54:37.111Z,4.28
2018-05-07T06:57:07.628Z,4.20
2018-05-07T06:59:36.610Z,4.28
2018-05-07T07:02:09.975Z,4.25
2018-05-07T07:04:37.789Z,4.30
2018-05-07T07:07:08.247Z,3.87
2018-05-07T07:09:41.328Z,4.30
2018-05-07T07:12:08.808Z,4.40
2018-05-07T07:14:37.390Z,4.03
2018-05-07T07:17:04.999Z,4.15
2018-05-07T07:19:32.494Z,4.12
2018-05-07T07:22:00.326Z,3.67
2018-05-07T07:24:28.088Z,3.40
2018-05-07T07:26:55.602Z,3.60
2018-05-07T07:29:23.310Z,3.70
2018-05-07T07:31:50.953Z,3.55
2018-05-07T07:34:27.236Z,3.47
2018-05-07T07:36:54.792Z,2.50
2018-05-07T07:39:23.149Z,2.20
2018-05-07T07:41:51.291Z,2.60
2018-05-07T07:44:20.206Z,4.90
2018-05-07T07:46:54.434Z,2.65
2018-05-07T07:49:21.962Z,2.40
2018-05-07T07:51:56.561Z,2.75
2018-05-07T07:54:25.222Z,2.62
2018-05-07T07:56:57.747Z,2.80
2018-05-07T07:59:29.240Z,2.10
2018-05-07T08:02:05.243Z,2.10
2018-05-07T08:04:35.068Z,2.40
2018-05-07T08:07:06.488Z,2.30
2018-05-07T08:09:47.615Z,2.35
2018-05-07T08:17:36.337Z,2.15
2018-05-07T08:20:07.578Z,2.22
2018-05-07T08:22:35.499Z,2.10
2018-05-07T08:25:09.098Z,2.33
2018-05-07T08:27:37.349Z,2.55
2018-05-07T08:30:06.397Z,2.20
2018-05-07T08:32:36.690Z,2.30
2018-05-07T08:35:05.562Z,2.20
2018-05-07T08:37:33.631Z,2.10
2018-05-07T08:40:03.578Z,2.25
2018-05-07T08:42:34.398Z,2.08
2018-05-07T08:45:05.430Z,2.25
2018-05-07T08:47:37.161Z,2.13
2018-05-07T08:50:07.525Z,2.30
2018-05-07T08:52:38.098Z,2.00
2018-05-07T08:55:09.335Z,1.80
2018-05-07T08:57:36.885Z,1.50
2018-05-07T09:00:06.079Z,1.83
2018-05-07T09:02:36.679Z,1.80
2018-05-07T09:05:09.932Z,1.60
2018-05-07T09:07:37.544Z,1.80
2018-05-07T09:10:06.643Z,1.60
2018-05-07T09:12:36.062Z,1.90
2018-05-07T09:15:05.489Z,1.70
2018-05-07T09:17:35.881Z,1.75
2018-05-07T09:20:04.223Z,2.00
2018-05-07T09:22:35.174Z,1.98
2018-05-07T09:25:05.420Z,2.37
2018-05-07T09:27:35.806Z,1.60
2018-05-07T09:30:07.623Z,1.60
2018-05-07T09:32:38.340Z,1.50
2018-05-07T09:35:07.657Z,1.62
2018-05-07T09:37:37.724Z,1.30
2018-05-07T09:40:07.034Z,1.70
2018-05-07T09:42:38.368Z,1.40
2018-05-07T09:45:07.218Z,1.30
2018-05-07T09:47:35.683Z,1.40
2018-05-07T09:50:09.323Z,1.50
2018-05-07T09:52:37.621Z,1.20
2018-05-07T09:55:06.495Z,1.35
2018-05-07T09:57:36.732Z,1.42
2018-05-07T10:00:06.205Z,1.30
2018-05-07T10:02:37.134Z,1.30
2018-05-07T10:05:08.479Z,1.42
2018-05-07T10:07:37.422Z,1.50
2018-05-07T10:10:29.429Z,1.60
2018-05-07T10:12:56.994Z,1.42
2018-05-07T10:15:26.301Z,1.40
2018-05-07T10:18:04.284Z,1.27
2018-05-07T10:20:35.761Z,1.40
2018-05-07T10:23:08.163Z,1.37
2018-05-07T10:25:38.460Z,1.40
2018-05-07T10:28:08.363Z,1.43
2018-05-07T10:30:39.669Z,1.33
2018-05-07T10:33:22.907Z,1.40
2018-05-07T10:36:03.610Z,1.45
2018-05-07T10:38:35.161Z,1.30
2018-05-07T10:41:09.382Z,1.45
2018-05-07T10:43:37.857Z,1.40
2018-05-07T10:46:07.739Z,1.40
2018-05-07T10:48:42.568Z,1.50
2018-05-07T10:51:10.204Z,1.55
2018-05-07T10:53:38.789Z,1.50
2018-05-07T10:56:07.440Z,1.50
2018-05-07T10:58:37.475Z,1.40
2018-05-07T11:06:40.549Z,1.30
2018-05-07T11:12:02.039Z,1.43
2018-05-07T11:14:29.999Z,1.30
2018-05-07T11:17:03.828Z,1.60
2018-05-07T11:19:43.871Z,1.23
2018-05-07T11:22:11.459Z,1.40
2018-05-07T11:24:39.033Z,1.53
2018-05-07T11:27:08.935Z,1.60
2018-05-07T11:29:38.026Z,1.52
2018-05-07T11:32:07.242Z,1.48
2018-05-07T11:34:36.983Z,1.40
2018-05-07T11:37:06.779Z,1.33
2018-05-07T11:39:38.207Z,1.50
2018-05-07T11:42:07.683Z,1.58
2018-05-07T11:44:38.393Z,1.40
2018-05-07T11:47:06.115Z,1.40
2018-05-07T11:49:44.200Z,1.50
2018-05-07T11:52:26.972Z,1.40
2018-05-07T11:55:04.775Z,1.37
2018-05-07T11:57:33.023Z,1.50
2018-05-07T12:00:00.511Z,1.45
2018-05-07T12:02:28.794Z,1.40
2018-05-07T12:05:06.369Z,1.20
2018-05-07T12:07:39.291Z,1.40
2018-05-07T12:10:07.124Z,1.30
2018-05-07T12:12:38.554Z,1.43
2018-05-07T12:15:10.343Z,1.40
2018-05-07T12:17:39.105Z,1.02
2018-05-07T12:20:07.358Z,1.40
2018-05-07T12:22:40.198Z,1.27
2018-05-07T12:25:09.066Z,1.40
2018-05-07T12:27:37.773Z,1.27
2018-05-07T12:30:07.751Z,1.20
2018-05-07T12:32:37.475Z,1.50
2018-05-07T12:35:06.895Z,1.30
2018-05-07T12:37:36.563Z,1.27
2018-05-07T12:40:04.076Z,1.10
2018-05-07T12:42:32.599Z,1.30
2018-05-07T12:45:01.376Z,1.33
2018-05-07T12:47:28.977Z,1.55
2018-05-07T12:49:56.452Z,1.40
2018-05-07T12:52:24.121Z,1.30
2018-05-07T12:55:03.218Z,1.30
2018-05-07T12:57:31.714Z,1.10
2018-05-07T12:59:59.403Z,1.30
2018-05-07T13:02:28.749Z,1.05
2018-05-07T13:04:56.243Z,1.40
2018-05-07T13:07:26.158Z,1.10
2018-05-07T13:10:05.225Z,1.10
2018-05-07T13:12:33.376Z,1.40
2018-05-07T13:15:01.787Z,1.23
2018-05-07T13:17:29.362Z,1.30
2018-05-07T13:19:57.011Z,1.40
2018-05-07T13:22:26.165Z,1.20
2018-05-07T13:25:00.458Z,1.30
2018-05-07T13:27:35.218Z,1.30
2018-05-07T13:30:02.913Z,1.20
2018-05-07T13:32:33.634Z,1.25
2018-05-07T13:35:04.742Z,1.30
2018-05-07T13:37:33.065Z,1.00
2018-05-07T13:40:00.688Z,1.20
2018-05-07T13:42:28.387Z,1.10
2018-05-07T13:44:59.337Z,1.20
2018-05-07T13:47:28.795Z,1.10
2018-05-07T13:49:59.947Z,1.27
2018-05-07T13:55:23.917Z,1.20
2018-05-07T13:57:52.486Z,1.20
2018-05-07T14:00:19.981Z,1.48
2018-05-07T14:02:48.278Z,1.33
2018-05-07T14:05:23.781Z,1.55
2018-05-07T14:07:52.639Z,1.40
2018-05-07T14:10:20.122Z,1.17
2018-05-07T14:12:53.853Z,1.50
2018-05-07T14:18:16.489Z,1.43
2018-05-07T14:20:52.100Z,1.30
2018-05-07T14:23:19.866Z,1.25
2018-05-07T14:25:48.306Z,1.27
2018-05-07T14:28:17.799Z,1.30
2018-05-07T14:30:46.163Z,1.30
2018-05-07T14:33:13.656Z,1.77
2018-05-07T14:38:29.942Z,1.30
2018-05-07T14:40:58.333Z,1.57
2018-05-07T14:43:39.888Z,1.40
2018-05-07T14:46:25.739Z,1.40
2018-05-07T14:48:53.216Z,1.42
2018-05-07T14:51:21.547Z,1.40
2018-05-07T14:53:49.756Z,1.27
2018-05-07T14:56:24.468Z,1.40
2018-05-07T14:58:55.295Z,1.30
2018-05-07T15:01:23.235Z,1.48
2018-05-07T15:06:25.398Z,1.60
2018-05-07T15:08:53.888Z,1.40
2018-05-07T15:11:21.763Z,1.20
2018-05-07T15:14:11.115Z,1.40
2018-05-07T15:16:50.299Z,1.42
2018-05-07T15:19:23.341Z,1.42
2018-05-07T15:21:53.873Z,1.60
2018-05-07T15:24:23.003Z,1.42
2018-05-07T15:26:52.688Z,1.40
2018-05-07T15:29:23.170Z,1.40
2018-05-07T15:31:53.902Z,1.45
2018-05-07T15:34:22.868Z,1.50
2018-05-07T15:36:53.541Z,1.50
2018-05-07T15:42:29.503Z,1.50
2018-05-07T15:45:14.654Z,1.45
2018-05-07T15:47:46.201Z,1.35
2018-05-07T15:50:18.559Z,1.37
2018-05-07T15:58:10.951Z,1.70
2018-05-07T19:28:00.332Z,2.15
2018-05-07T19:30:46.916Z,2.20
2018-05-07T19:33:20.820Z,3.37
2018-05-07T19:35:49.085Z,2.30
2018-05-07T19:38:22.908Z,2.20
2018-05-07T19:40:50.659Z,3.00
2018-05-07T19:43:18.705Z,2.00
2018-05-07T19:45:46.616Z,2.08
2018-05-07T19:48:15.007Z,2.12
2018-05-07T19:50:42.495Z,1.90
2018-05-07T19:53:10.021Z,1.90
2018-05-07T19:55:37.577Z,1.70
2018-05-07T19:58:04.988Z,2.00
2018-05-07T20:00:32.457Z,1.80
2018-05-07T20:02:59.967Z,2.03
2018-05-07T20:05:27.457Z,1.93
2018-05-07T20:08:12.565Z,2.00
2018-05-07T20:10:42.049Z,2.05
2018-05-07T20:13:10.336Z,2.45
2018-05-07T20:15:38.696Z,2.40
2018-05-07T20:18:06.203Z,2.20
2018-05-07T20:20:34.466Z,2.17
2018-05-07T20:23:01.951Z,1.98
2018-05-07T20:25:30.448Z,1.90
2018-05-07T20:27:58.754Z,2.00
2018-05-07T20:30:26.244Z,2.53
2018-05-07T20:32:53.741Z,2.22
2018-05-07T20:35:21.215Z,2.20
2018-05-07T20:38:09.355Z,2.10
2018-05-07T20:40:36.859Z,2.12
2018-05-07T20:43:04.346Z,2.20
2018-05-07T20:45:32.693Z,1.90
2018-05-07T20:48:00.227Z,2.03
2018-05-07T20:50:40.669Z,2.15
2018-05-07T20:53:08.144Z,2.87
2018-05-07T20:55:36.522Z,2.67
2018-05-07T20:58:04.072Z,2.40
2018-05-07T21:03:40.165Z,2.10
2018-05-07T21:06:09.808Z,2.08
2018-05-07T21:08:51.211Z,2.00
2018-05-07T21:11:18.820Z,2.30
2018-05-07T21:13:46.320Z,1.90
2018-05-07T21:19:18.472Z,2.13
2018-05-07T21:21:46.030Z,2.10
2018-05-07T21:24:14.105Z,2.20
2018-05-07T21:26:41.699Z,2.00
2018-05-07T21:29:11.130Z,2.00
2018-05-07T21:31:45.465Z,2.22
2018-05-07T21:34:13.027Z,2.03
2018-05-07T21:36:40.612Z,2.30
2018-05-07T21:39:08.870Z,2.20
2018-05-07T21:41:36.377Z,2.20
2018-05-07T21:44:04.645Z,2.03
2018-05-07T21:46:32.216Z,2.12
2018-05-07T21:49:00.530Z,2.30
2018-05-07T21:51:28.408Z,2.20
2018-05-07T21:53:57.256Z,2.00
2018-05-07T21:56:24.904Z,2.10
2018-05-07T21:58:52.497Z,2.10
2018-05-07T22:01:20.849Z,2.33
2018-05-07T22:03:48.375Z,2.40
2018-05-07T22:06:15.998Z,1.95
2018-05-07T22:11:42.371Z,2.40
2018-05-07T22:14:09.941Z,2.30
2018-05-07T22:16:37.492Z,2.40
2018-05-07T22:27:51.349Z,2.70
2018-05-07T22:30:19.691Z,2.50
2018-05-07T22:32:47.188Z,2.37
2018-05-07T22:35:14.683Z,2.57
2018-05-07T22:37:42.973Z,2.40
2018-05-07T22:40:10.517Z,2.33
2018-05-07T22:42:38.139Z,2.12
2018-05-07T22:45:05.722Z,2.47
2018-05-07T22:47:40.658Z,2.10
2018-05-07T22:50:08.164Z,2.72
2018-05-07T22:52:35.651Z,2.45
2018-05-07T22:55:20.616Z,2.30
2018-05-07T22:57:52.455Z,2.25
2018-05-07T23:00:30.463Z,2.87
2018-05-07T23:02:57.987Z,2.17
2018-05-07T23:05:31.483Z,2.40
2018-05-07T23:07:58.994Z,2.15
2018-05-07T23:10:26.555Z,2.10
2018-05-07T23:12:54.838Z,2.10
2018-05-07T23:15:23.255Z,2.30
2018-05-07T23:17:50.796Z,2.30
2018-05-07T23:20:18.383Z,2.30
2018-05-07T23:22:45.901Z,2.37
2018-05-07T23:25:13.395Z,2.37
2018-05-07T23:27:40.871Z,2.30
2018-05-07T23:30:09.333Z,2.30
2018-05-07T23:32:44.664Z,2.25
2018-05-07T23:35:12.156Z,2.33
2018-05-07T23:37:40.072Z,2.22
2018-05-07T23:40:07.723Z,2.30
2018-05-07T23:42:35.216Z,2.35
2018-05-07T23:45:03.569Z,2.25
2018-05-07T23:47:31.203Z,2.30
2018-05-07T23:49:59.599Z,2.22
2018-05-07T23:52:27.251Z,2.40
2018-05-07T23:54:54.799Z,2.20
2018-05-07T23:57:22.385Z,2.50
2018-05-07T23:59:49.910Z,2.40
